Time;durP1;ratioP1;P1;durP2;ratioP2;P2;SDS_P1;SDS_P2;PMS_P1;PMS_P2;Temp;Humidity;BMP_temperature;BMP_pressure;BME280_temperature;BME280_humidity;BME280_pressure;Samples;Min_cycle;Max_cycle;Signal;HPM_P1;HPM_P2
2020/12/21 00:01:05;;;;;;;31.83;28.90;;;;;;;;;;5121383;27;20702;-80
2020/12/21 00:03:33;;;;;;;32.33;29.67;;;;;;;;;;5123573;27;20208;-79
2020/12/21 00:05:59;;;;;;;31.77;29.50;;;;;;;;;;5130051;27;20198;-78
2020/12/21 00:08:26;;;;;;;30.88;28.45;;;;;;;;;;5129341;28;20252;-78
2020/12/21 00:11:16;;;;;;;31.90;29.67;;;;;;;;;;5134863;28;20222;-78
2020/12/21 00:13:43;;;;;;;31.63;29.02;;;;;;;;;;5127563;28;20258;-79
2020/12/21 00:16:10;;;;;;;31.48;29.23;;;;;;;;;;5130089;28;20211;-78
2020/12/21 00:18:42;;;;;;;31.33;28.67;;;;;;;;;;5143403;27;20184;-80
2020/12/21 00:21:14;;;;;;;31.55;29.35;;;;;;;;;;5138248;27;20207;-79
2020/12/21 00:23:43;;;;;;;31.70;28.65;;;;;;;;;;5142135;27;20199;-79
2020/12/21 00:28:58;;;;;;;30.80;27.92;;;;;;;;;;5147122;27;20223;-78
2020/12/21 00:31:26;;;;;;;30.55;28.13;;;;;;;;;;5136242;27;20203;-78
2020/12/21 00:33:58;;;;;;;30.58;28.13;;;;;;;;;;5133141;27;20688;-78
2020/12/21 00:36:25;;;;;;;32.13;29.63;;;;;;;;;;5142552;27;20189;-78
2020/12/21 00:38:57;;;;;;;30.05;27.75;;;;;;;;;;5135650;27;20230;-78
2020/12/21 00:41:24;;;;;;;32.10;29.65;;;;;;;;;;5135958;27;20228;-77
2020/12/21 00:43:52;;;;;;;29.52;27.23;;;;;;;;;;5133169;27;20210;-79
2020/12/21 00:46:24;;;;;;;30.42;27.90;;;;;;;;;;5130760;27;20201;-79
2020/12/21 00:48:52;;;;;;;29.90;27.65;;;;;;;;;;5132929;27;20647;-78
2020/12/21 00:51:22;;;;;;;31.17;28.75;;;;;;;;;;5135912;27;20207;-78
2020/12/21 00:53:49;;;;;;;30.63;28.10;;;;;;;;;;5131828;27;20206;-78
2020/12/21 00:56:17;;;;;;;31.52;28.77;;;;;;;;;;5130830;27;20200;-78
2020/12/21 00:58:45;;;;;;;31.48;28.65;;;;;;;;;;5128124;27;20684;-78
2020/12/21 01:01:13;;;;;;;31.35;28.45;;;;;;;;;;5107100;28;20297;-79
2020/12/21 01:03:40;;;;;;;29.65;27.35;;;;;;;;;;5124040;28;20209;-79
2020/12/21 01:06:07;;;;;;;30.17;27.80;;;;;;;;;;5108944;28;20202;-78
2020/12/21 01:08:37;;;;;;;31.75;28.85;;;;;;;;;;5120263;28;20784;-79
2020/12/21 01:11:09;;;;;;;31.05;28.50;;;;;;;;;;5120812;28;20603;-79
2020/12/21 01:13:42;;;;;;;30.52;28.13;;;;;;;;;;5120857;28;20231;-79
2020/12/21 01:16:09;;;;;;;29.70;26.83;;;;;;;;;;5118959;28;20192;-79
2020/12/21 01:18:36;;;;;;;29.63;26.63;;;;;;;;;;5121160;28;20204;-78
2020/12/21 01:21:05;;;;;;;29.38;27.05;;;;;;;;;;5120813;28;20548;-78
2020/12/21 01:23:32;;;;;;;30.63;27.90;;;;;;;;;;5120658;28;20208;-79
2020/12/21 01:26:00;;;;;;;29.83;27.55;;;;;;;;;;5121140;28;20203;-78
2020/12/21 01:28:26;;;;;;;29.17;26.52;;;;;;;;;;5122702;28;20224;-79
2020/12/21 01:30:54;;;;;;;28.17;25.48;;;;;;;;;;5119477;28;20187;-79
2020/12/21 01:33:21;;;;;;;29.23;26.70;;;;;;;;;;5119613;28;20582;-79
2020/12/21 01:35:48;;;;;;;28.85;26.65;;;;;;;;;;5119756;28;20203;-78
2020/12/21 01:38:15;;;;;;;29.10;26.63;;;;;;;;;;5119690;28;20659;-79
2020/12/21 01:40:41;;;;;;;28.50;26.05;;;;;;;;;;5120653;28;20188;-79
2020/12/21 01:43:09;;;;;;;28.55;25.95;;;;;;;;;;5119059;28;20215;-79
2020/12/21 01:45:37;;;;;;;27.55;25.33;;;;;;;;;;5118308;28;20272;-79
2020/12/21 01:48:03;;;;;;;28.60;26.30;;;;;;;;;;5122193;28;20216;-78
2020/12/21 01:50:30;;;;;;;29.13;26.27;;;;;;;;;;5120065;28;20187;-79
2020/12/21 01:52:59;;;;;;;28.02;25.48;;;;;;;;;;5121192;28;20195;-77
2020/12/21 01:55:26;;;;;;;28.33;26.23;;;;;;;;;;5122516;28;20197;-78
2020/12/21 01:57:53;;;;;;;27.40;25.00;;;;;;;;;;5127656;28;20192;-78
2020/12/21 02:00:20;;;;;;;28.83;26.83;;;;;;;;;;5128993;28;20196;-78
2020/12/21 02:02:48;;;;;;;31.80;26.17;;;;;;;;;;5128878;28;20672;-77
2020/12/21 02:05:16;;;;;;;28.98;26.67;;;;;;;;;;5117922;28;20589;-78
2020/12/21 02:07:43;;;;;;;31.85;26.75;;;;;;;;;;5100607;28;20212;-79
2020/12/21 02:10:10;;;;;;;27.00;24.98;;;;;;;;;;5120817;28;20214;-78
2020/12/21 02:12:37;;;;;;;27.48;25.77;;;;;;;;;;5101221;28;20266;-78
2020/12/21 02:15:04;;;;;;;27.98;25.80;;;;;;;;;;5100238;28;20200;-77
2020/12/21 02:17:32;;;;;;;28.77;26.20;;;;;;;;;;5119587;28;20653;-78
2020/12/21 02:19:59;;;;;;;27.50;25.27;;;;;;;;;;5119363;28;20189;-77
2020/12/21 02:22:26;;;;;;;27.33;24.90;;;;;;;;;;5119361;28;20195;-78
2020/12/21 02:24:53;;;;;;;27.00;24.58;;;;;;;;;;5119556;28;20241;-78
2020/12/21 02:27:20;;;;;;;28.90;26.38;;;;;;;;;;5119317;28;20211;-78
2020/12/21 02:29:48;;;;;;;28.60;26.25;;;;;;;;;;5118803;28;20188;-78
2020/12/21 02:32:15;;;;;;;27.50;25.40;;;;;;;;;;5118393;28;20195;-78
2020/12/21 02:34:43;;;;;;;29.40;26.58;;;;;;;;;;5100174;28;20214;-77
2020/12/21 02:37:11;;;;;;;27.75;25.90;;;;;;;;;;5121035;28;20253;-78
2020/12/21 02:39:41;;;;;;;27.27;25.10;;;;;;;;;;5124014;28;20227;-78
2020/12/21 02:42:18;;;;;;;27.60;25.27;;;;;;;;;;5132270;28;20203;-77
2020/12/21 02:44:47;;;;;;;28.55;26.65;;;;;;;;;;5125532;28;20634;-78
2020/12/21 02:47:15;;;;;;;27.60;25.38;;;;;;;;;;5124044;28;20195;-77
2020/12/21 02:49:42;;;;;;;26.45;24.33;;;;;;;;;;5126420;28;20191;-78
2020/12/21 02:52:10;;;;;;;28.80;26.33;;;;;;;;;;5124537;28;20281;-77
2020/12/21 02:54:37;;;;;;;27.65;25.52;;;;;;;;;;5123510;28;20228;-77
2020/12/21 02:57:05;;;;;;;27.55;25.45;;;;;;;;;;5124503;28;20248;-78
2020/12/21 02:59:32;;;;;;;27.80;25.45;;;;;;;;;;5123557;28;20195;-78
2020/12/21 03:02:01;;;;;;;26.67;24.80;;;;;;;;;;5126476;28;20198;-77
2020/12/21 03:04:31;;;;;;;27.92;25.88;;;;;;;;;;5124092;28;20557;-77
2020/12/21 03:07:00;;;;;;;26.63;24.42;;;;;;;;;;5125200;28;20283;-78
2020/12/21 03:09:29;;;;;;;29.05;25.95;;;;;;;;;;5126838;28;20219;-79
2020/12/21 03:11:57;;;;;;;27.67;25.65;;;;;;;;;;5126267;28;20628;-79
2020/12/21 03:14:25;;;;;;;30.52;27.98;;;;;;;;;;5126965;28;20228;-78
2020/12/21 03:16:54;;;;;;;25.90;24.00;;;;;;;;;;5124947;28;20191;-78
2020/12/21 03:19:21;;;;;;;27.20;25.20;;;;;;;;;;5124660;28;20199;-79
2020/12/21 03:21:48;;;;;;;28.23;25.50;;;;;;;;;;5126951;28;20200;-78
2020/12/21 03:24:16;;;;;;;26.70;24.80;;;;;;;;;;5127486;28;20202;-78
2020/12/21 03:26:42;;;;;;;27.70;25.38;;;;;;;;;;5125423;28;20544;-78
2020/12/21 03:29:10;;;;;;;28.75;26.08;;;;;;;;;;5121118;28;20226;-78
2020/12/21 03:31:38;;;;;;;27.35;25.45;;;;;;;;;;5121173;28;20226;-79
2020/12/21 03:34:04;;;;;;;27.55;25.45;;;;;;;;;;5102440;28;20234;-78
2020/12/21 03:36:31;;;;;;;27.17;25.00;;;;;;;;;;5119509;28;20191;-78
2020/12/21 03:38:58;;;;;;;28.38;25.95;;;;;;;;;;5084307;28;20208;-78
2020/12/21 03:41:25;;;;;;;27.40;25.15;;;;;;;;;;5121456;28;20191;-79
2020/12/21 03:43:53;;;;;;;28.02;25.92;;;;;;;;;;5122104;28;20188;-78
2020/12/21 03:46:20;;;;;;;27.58;25.27;;;;;;;;;;5121364;28;20589;-77
2020/12/21 03:48:49;;;;;;;28.35;26.13;;;;;;;;;;5119606;28;20223;-79
2020/12/21 03:51:17;;;;;;;27.65;25.15;;;;;;;;;;5121302;28;20248;-79
2020/12/21 03:53:45;;;;;;;28.42;25.55;;;;;;;;;;5119695;28;20190;-79
2020/12/21 03:56:12;;;;;;;27.75;25.48;;;;;;;;;;5121113;28;20197;-79
2020/12/21 03:58:39;;;;;;;28.98;26.08;;;;;;;;;;5120330;28;20614;-79
2020/12/21 04:01:06;;;;;;;29.55;27.05;;;;;;;;;;5121986;28;20182;-79
2020/12/21 04:03:33;;;;;;;27.67;25.13;;;;;;;;;;5120958;28;20187;-79
2020/12/21 04:06:05;;;;;;;28.10;25.95;;;;;;;;;;5121161;28;20198;-79
2020/12/21 04:08:32;;;;;;;30.20;27.95;;;;;;;;;;5125700;28;20214;-79
2020/12/21 04:10:59;;;;;;;26.52;24.45;;;;;;;;;;5114777;28;20191;-79
2020/12/21 04:13:27;;;;;;;26.30;24.35;;;;;;;;;;5114964;28;20279;-79
2020/12/21 04:15:54;;;;;;;27.02;25.00;;;;;;;;;;5115180;28;20240;-80
2020/12/21 04:18:21;;;;;;;26.98;24.55;;;;;;;;;;5115166;28;20213;-79
2020/12/21 04:20:48;;;;;;;26.50;24.65;;;;;;;;;;5115124;28;20252;-79
2020/12/21 04:23:16;;;;;;;25.05;23.23;;;;;;;;;;5114856;28;20212;-79
2020/12/21 04:25:44;;;;;;;25.10;23.40;;;;;;;;;;5115954;28;20198;-79
2020/12/21 04:28:11;;;;;;;25.92;24.25;;;;;;;;;;5097717;28;20225;-79
2020/12/21 04:30:39;;;;;;;26.55;24.48;;;;;;;;;;5115864;28;20202;-79
2020/12/21 04:33:06;;;;;;;25.30;23.42;;;;;;;;;;5116299;28;20228;-79
2020/12/21 04:35:33;;;;;;;26.70;24.90;;;;;;;;;;5115278;28;20186;-79
2020/12/21 04:38:00;;;;;;;25.23;23.15;;;;;;;;;;5117637;28;20194;-79
2020/12/21 04:40:27;;;;;;;25.08;23.33;;;;;;;;;;5114311;28;20193;-78
2020/12/21 04:42:54;;;;;;;27.30;25.20;;;;;;;;;;5114125;28;20188;-79
2020/12/21 04:45:22;;;;;;;25.75;23.65;;;;;;;;;;5114312;28;20193;-79
2020/12/21 04:47:49;;;;;;;26.17;23.75;;;;;;;;;;5116446;28;20214;-79
2020/12/21 04:50:17;;;;;;;25.73;23.92;;;;;;;;;;5114487;28;20673;-79
2020/12/21 04:52:49;;;;;;;26.35;24.25;;;;;;;;;;5114714;28;20187;-79
2020/12/21 04:55:20;;;;;;;26.50;24.15;;;;;;;;;;5114316;28;20605;-79
2020/12/21 04:57:58;;;;;;;25.80;23.70;;;;;;;;;;5114125;28;20188;-79
2020/12/21 05:00:25;;;;;;;26.95;24.92;;;;;;;;;;5113623;28;20195;-79
2020/12/21 05:02:52;;;;;;;26.70;24.80;;;;;;;;;;5113902;28;20196;-79
2020/12/21 05:05:29;;;;;;;27.52;25.58;;;;;;;;;;5096698;28;20195;-79
2020/12/21 05:07:56;;;;;;;26.23;24.35;;;;;;;;;;5099426;28;20583;-79
2020/12/21 05:10:23;;;;;;;27.05;25.35;;;;;;;;;;5117833;28;20198;-79
2020/12/21 05:13:00;;;;;;;27.42;24.67;;;;;;;;;;5116992;28;20278;-79
2020/12/21 05:15:27;;;;;;;25.42;23.38;;;;;;;;;;5117651;28;20271;-79
2020/12/21 05:18:04;;;;;;;26.40;24.50;;;;;;;;;;5117770;28;20196;-78
2020/12/21 05:20:31;;;;;;;25.17;23.30;;;;;;;;;;5117323;28;20641;-78
2020/12/21 05:22:58;;;;;;;26.95;24.95;;;;;;;;;;5117279;28;20194;-79
2020/12/21 05:25:24;;;;;;;25.95;23.92;;;;;;;;;;5117470;28;20186;-78
2020/12/21 05:27:51;;;;;;;26.23;24.35;;;;;;;;;;5117458;28;20217;-78
2020/12/21 05:30:19;;;;;;;26.58;24.67;;;;;;;;;;5117250;28;20625;-78
2020/12/21 05:32:46;;;;;;;25.65;23.52;;;;;;;;;;5118024;28;20233;-78
2020/12/21 05:35:15;;;;;;;25.90;23.77;;;;;;;;;;5116889;28;20190;-77
2020/12/21 05:37:42;;;;;;;25.42;23.52;;;;;;;;;;5117297;28;20233;-78
2020/12/21 05:40:09;;;;;;;25.67;23.60;;;;;;;;;;5117335;28;20274;-79
2020/12/21 05:42:37;;;;;;;25.70;23.70;;;;;;;;;;5117148;28;20191;-80
2020/12/21 05:45:05;;;;;;;25.08;23.08;;;;;;;;;;5116749;28;20273;-78
2020/12/21 05:47:33;;;;;;;25.40;23.42;;;;;;;;;;5117038;28;20239;-78
2020/12/21 05:50:01;;;;;;;25.90;23.80;;;;;;;;;;5116943;28;20192;-78
2020/12/21 05:52:30;;;;;;;26.25;24.25;;;;;;;;;;5098761;28;20203;-78
2020/12/21 05:54:56;;;;;;;26.25;23.83;;;;;;;;;;5116923;28;20597;-78
2020/12/21 05:57:28;;;;;;;27.60;25.30;;;;;;;;;;5116944;28;20189;-78
2020/12/21 05:59:55;;;;;;;27.63;25.42;;;;;;;;;;5116995;28;20221;-77
2020/12/21 06:02:22;;;;;;;26.55;24.17;;;;;;;;;;5117040;28;20320;-78
2020/12/21 06:04:50;;;;;;;27.50;24.70;;;;;;;;;;5119846;28;20191;-78
2020/12/21 06:07:22;;;;;;;26.73;24.60;;;;;;;;;;5117847;28;20191;-77
2020/12/21 06:09:50;;;;;;;27.83;25.83;;;;;;;;;;5118728;28;20191;-77
2020/12/21 06:12:18;;;;;;;27.55;24.88;;;;;;;;;;5101440;28;20214;-77
2020/12/21 06:14:46;;;;;;;26.42;24.25;;;;;;;;;;5118204;28;20234;-77
2020/12/21 06:17:13;;;;;;;28.58;26.30;;;;;;;;;;5117889;28;20187;-78
2020/12/21 06:19:40;;;;;;;30.70;27.45;;;;;;;;;;5117457;28;20273;-78
2020/12/21 06:22:08;;;;;;;25.88;24.05;;;;;;;;;;5117738;28;20236;-78
2020/12/21 06:24:39;;;;;;;25.33;23.55;;;;;;;;;;5116788;28;20194;-78
2020/12/21 06:27:15;;;;;;;26.35;24.30;;;;;;;;;;5117498;28;20192;-78
2020/12/21 06:29:42;;;;;;;27.27;24.98;;;;;;;;;;5116679;28;20218;-78
2020/12/21 06:32:10;;;;;;;26.90;25.00;;;;;;;;;;5116097;28;20197;-78
2020/12/21 06:34:38;;;;;;;26.70;25.00;;;;;;;;;;5115863;28;20271;-78
2020/12/21 06:37:05;;;;;;;26.20;24.20;;;;;;;;;;5116132;28;20186;-78
2020/12/21 06:39:34;;;;;;;26.05;23.95;;;;;;;;;;5115680;28;20196;-78
2020/12/21 06:42:02;;;;;;;27.63;25.02;;;;;;;;;;5115683;28;20206;-78
2020/12/21 06:44:30;;;;;;;27.15;24.90;;;;;;;;;;5097750;28;20234;-78
2020/12/21 06:46:57;;;;;;;26.02;24.23;;;;;;;;;;5115934;28;20186;-78
2020/12/21 06:49:24;;;;;;;26.25;24.00;;;;;;;;;;5115687;28;20268;-78
2020/12/21 06:51:51;;;;;;;25.60;24.00;;;;;;;;;;5115820;28;20190;-78
2020/12/21 06:54:18;;;;;;;25.70;23.48;;;;;;;;;;5115833;28;20207;-78
2020/12/21 06:56:47;;;;;;;27.50;25.50;;;;;;;;;;5115254;28;20202;-77
2020/12/21 06:59:15;;;;;;;26.38;24.35;;;;;;;;;;5097315;28;20601;-78
2020/12/21 07:01:43;;;;;;;27.10;24.48;;;;;;;;;;5096975;28;20204;-78
2020/12/21 07:04:11;;;;;;;27.95;25.65;;;;;;;;;;5115494;28;20209;-78
2020/12/21 07:06:38;;;;;;;26.48;24.48;;;;;;;;;;5115686;28;20221;-78
2020/12/21 07:09:05;;;;;;;27.90;25.27;;;;;;;;;;5115359;28;20220;-78
2020/12/21 07:11:33;;;;;;;25.42;23.45;;;;;;;;;;5115366;28;20667;-78
2020/12/21 07:14:00;;;;;;;25.92;23.95;;;;;;;;;;5114848;28;20619;-78
2020/12/21 07:16:27;;;;;;;26.30;24.08;;;;;;;;;;5115726;28;20191;-78
2020/12/21 07:18:54;;;;;;;26.02;23.75;;;;;;;;;;5115016;28;20277;-78
2020/12/21 07:21:21;;;;;;;26.58;23.88;;;;;;;;;;5115096;28;20194;-78
2020/12/21 07:23:48;;;;;;;25.38;23.38;;;;;;;;;;5115101;28;20187;-78
2020/12/21 07:26:15;;;;;;;28.80;26.10;;;;;;;;;;5115265;28;20182;-78
2020/12/21 07:28:45;;;;;;;25.65;23.50;;;;;;;;;;5114520;28;20218;-79
2020/12/21 07:31:13;;;;;;;25.25;23.45;;;;;;;;;;5114811;28;20282;-79
2020/12/21 07:33:50;;;;;;;26.55;24.65;;;;;;;;;;5114749;28;20233;-79
2020/12/21 07:36:18;;;;;;;28.00;25.48;;;;;;;;;;5114558;28;20188;-79
2020/12/21 07:38:44;;;;;;;25.73;23.92;;;;;;;;;;5114601;28;20655;-79
2020/12/21 07:41:12;;;;;;;25.85;23.60;;;;;;;;;;5115105;28;20192;-79
2020/12/21 07:43:40;;;;;;;25.77;23.65;;;;;;;;;;5096447;28;20206;-80
2020/12/21 07:46:08;;;;;;;25.98;24.08;;;;;;;;;;5114820;28;20247;-81
2020/12/21 07:48:36;;;;;;;27.17;25.08;;;;;;;;;;5114823;28;20215;-80
2020/12/21 07:51:04;;;;;;;26.40;24.25;;;;;;;;;;5096745;28;20211;-83
2020/12/21 07:53:31;;;;;;;27.38;25.08;;;;;;;;;;5115178;28;20202;-82
2020/12/21 07:55:58;;;;;;;26.35;24.52;;;;;;;;;;5114872;28;20644;-82
2020/12/21 07:58:26;;;;;;;27.05;24.58;;;;;;;;;;5115012;28;20183;-82
2020/12/21 08:00:55;;;;;;;27.13;24.77;;;;;;;;;;5114657;28;20617;-82
2020/12/21 08:03:23;;;;;;;28.33;26.15;;;;;;;;;;5115060;28;20192;-83
2020/12/21 08:05:51;;;;;;;26.85;24.95;;;;;;;;;;5114348;28;20283;-82
2020/12/21 08:08:22;;;;;;;28.08;25.80;;;;;;;;;;5113967;28;20215;-81
2020/12/21 08:10:59;;;;;;;28.00;26.00;;;;;;;;;;5114496;28;20195;-82
2020/12/21 08:13:26;;;;;;;26.35;24.35;;;;;;;;;;5096371;28;20287;-82
2020/12/21 08:15:53;;;;;;;27.30;25.02;;;;;;;;;;5114263;28;20207;-82
2020/12/21 08:18:20;;;;;;;28.15;26.00;;;;;;;;;;5114348;28;20640;-82
2020/12/21 08:20:51;;;;;;;28.35;26.05;;;;;;;;;;5114410;28;20187;-82
2020/12/21 08:23:25;;;;;;;29.70;27.15;;;;;;;;;;5114351;28;20188;-82
2020/12/21 08:25:52;;;;;;;28.83;26.52;;;;;;;;;;5114166;28;20192;-82
2020/12/21 08:28:27;;;;;;;29.83;26.73;;;;;;;;;;5095798;28;20229;-81
2020/12/21 08:31:04;;;;;;;29.38;26.55;;;;;;;;;;5113922;28;20192;-81
2020/12/21 08:33:31;;;;;;;28.83;26.33;;;;;;;;;;5114233;28;20219;-81
2020/12/21 08:35:58;;;;;;;28.15;26.05;;;;;;;;;;5114195;28;20527;-81
2020/12/21 08:38:26;;;;;;;27.55;25.30;;;;;;;;;;5114137;28;20560;-81
2020/12/21 08:40:56;;;;;;;28.05;25.92;;;;;;;;;;5116341;28;20191;-81
2020/12/21 08:43:23;;;;;;;27.98;25.50;;;;;;;;;;5118386;28;20589;-80
2020/12/21 08:45:50;;;;;;;28.45;26.20;;;;;;;;;;5118151;28;20191;-80
2020/12/21 08:48:16;;;;;;;26.80;24.92;;;;;;;;;;5118004;28;20226;-81
2020/12/21 08:50:43;;;;;;;26.92;25.00;;;;;;;;;;5118390;28;20199;-82
2020/12/21 08:53:10;;;;;;;27.17;25.17;;;;;;;;;;5118526;28;20535;-82
2020/12/21 08:55:38;;;;;;;27.45;25.55;;;;;;;;;;5100139;28;20289;-82
2020/12/21 08:58:05;;;;;;;27.58;25.35;;;;;;;;;;5117768;28;20194;-82
2020/12/21 09:00:32;;;;;;;27.70;25.65;;;;;;;;;;5117945;28;20541;-82
2020/12/21 09:02:58;;;;;;;27.73;25.60;;;;;;;;;;5118287;28;20199;-83
2020/12/21 09:05:25;;;;;;;27.88;25.83;;;;;;;;;;5099844;28;20248;-81
2020/12/21 09:07:52;;;;;;;25.95;23.92;;;;;;;;;;5117879;28;20237;-81
2020/12/21 09:10:19;;;;;;;27.38;25.08;;;;;;;;;;5118032;28;20191;-80
2020/12/21 09:12:47;;;;;;;27.83;25.55;;;;;;;;;;5117542;28;20580;-81
2020/12/21 09:15:14;;;;;;;27.15;25.15;;;;;;;;;;5116217;28;20186;-81
2020/12/21 09:17:40;;;;;;;25.13;23.52;;;;;;;;;;5116682;28;20248;-81
2020/12/21 09:20:07;;;;;;;26.80;24.70;;;;;;;;;;5116433;28;20202;-81
2020/12/21 09:22:34;;;;;;;26.27;24.52;;;;;;;;;;5115977;28;20661;-84
2020/12/21 09:25:01;;;;;;;27.98;25.63;;;;;;;;;;5117292;28;20199;-81
2020/12/21 09:27:28;;;;;;;27.10;25.33;;;;;;;;;;5116346;28;20221;-83
2020/12/21 09:29:56;;;;;;;27.63;25.42;;;;;;;;;;5116258;28;20212;-85
2020/12/21 09:32:23;;;;;;;26.50;24.60;;;;;;;;;;5097665;28;20687;-80
2020/12/21 09:34:49;;;;;;;26.13;24.20;;;;;;;;;;5116136;28;20205;-80
2020/12/21 09:37:16;;;;;;;27.63;25.60;;;;;;;;;;5114814;28;20187;-77
2020/12/21 09:39:43;;;;;;;26.10;24.10;;;;;;;;;;5098127;28;20213;-76
2020/12/21 09:42:10;;;;;;;27.80;25.55;;;;;;;;;;5120656;28;20212;-77
2020/12/21 09:44:37;;;;;;;29.65;27.45;;;;;;;;;;5116017;28;20197;-78
2020/12/21 09:47:05;;;;;;;29.70;27.45;;;;;;;;;;5097521;28;20204;-74
2020/12/21 09:49:31;;;;;;;27.30;25.40;;;;;;;;;;5115657;28;20215;-75
2020/12/21 09:51:58;;;;;;;28.70;26.50;;;;;;;;;;5115111;28;20252;-74
2020/12/21 09:54:25;;;;;;;27.30;25.10;;;;;;;;;;5115553;28;20183;-75
2020/12/21 09:56:52;;;;;;;25.63;23.75;;;;;;;;;;5115487;28;20195;-75
2020/12/21 09:59:20;;;;;;;28.15;26.13;;;;;;;;;;5115694;28;20281;-75
2020/12/21 10:01:47;;;;;;;26.00;24.33;;;;;;;;;;5115192;28;20195;-75
2020/12/21 10:04:15;;;;;;;26.90;25.10;;;;;;;;;;5115515;28;20577;-75
2020/12/21 10:06:47;;;;;;;26.00;24.27;;;;;;;;;;5097261;28;20702;-76
2020/12/21 10:09:14;;;;;;;26.42;24.52;;;;;;;;;;5115707;28;20211;-79
2020/12/21 10:11:41;;;;;;;26.58;24.15;;;;;;;;;;5115835;28;20259;-80
2020/12/21 10:14:08;;;;;;;26.00;24.20;;;;;;;;;;5081808;28;962966;-77
2020/12/21 10:16:35;;;;;;;26.98;25.08;;;;;;;;;;5116397;28;20188;-78
2020/12/21 10:19:02;;;;;;;26.20;24.13;;;;;;;;;;5115955;28;20187;-75
2020/12/21 10:21:29;;;;;;;26.98;25.08;;;;;;;;;;5116004;28;20195;-76
2020/12/21 10:23:57;;;;;;;26.92;25.02;;;;;;;;;;5116574;28;20199;-75
2020/12/21 10:26:24;;;;;;;26.23;24.02;;;;;;;;;;5116524;28;20617;-76
2020/12/21 10:28:51;;;;;;;26.95;24.92;;;;;;;;;;5115975;28;20301;-80
2020/12/21 10:31:18;;;;;;;25.40;23.35;;;;;;;;;;5116285;28;20192;-80
2020/12/21 10:33:45;;;;;;;24.05;22.30;;;;;;;;;;5115808;28;20591;-80
2020/12/21 10:36:15;;;;;;;27.05;24.80;;;;;;;;;;5115974;28;20595;-79
2020/12/21 10:38:43;;;;;;;26.20;23.30;;;;;;;;;;5116176;28;20275;-78
2020/12/21 10:41:10;;;;;;;27.00;25.40;;;;;;;;;;5115760;28;20232;-79
2020/12/21 10:43:37;;;;;;;25.83;24.02;;;;;;;;;;5116286;28;20192;-78
2020/12/21 10:46:04;;;;;;;27.00;25.30;;;;;;;;;;5115951;28;20633;-78
2020/12/21 10:48:30;;;;;;;29.48;27.20;;;;;;;;;;5115359;28;20206;-78
2020/12/21 10:50:57;;;;;;;27.77;25.88;;;;;;;;;;5115707;28;20198;-75
2020/12/21 10:53:24;;;;;;;29.95;27.65;;;;;;;;;;5115639;28;20223;-75
2020/12/21 10:55:52;;;;;;;27.88;25.83;;;;;;;;;;5098624;28;20195;-77
2020/12/21 10:58:19;;;;;;;27.38;25.45;;;;;;;;;;5115780;28;20197;-81
2020/12/21 11:00:46;;;;;;;26.85;24.65;;;;;;;;;;5115383;28;20184;-80
2020/12/21 11:03:12;;;;;;;26.63;24.65;;;;;;;;;;5114563;28;20239;-78
2020/12/21 11:05:41;;;;;;;25.85;23.88;;;;;;;;;;5117028;28;20201;-79
2020/12/21 11:08:08;;;;;;;28.38;26.27;;;;;;;;;;5118109;28;20271;-79
2020/12/21 11:10:35;;;;;;;28.20;25.73;;;;;;;;;;5116972;28;20190;-79
2020/12/21 11:13:03;;;;;;;26.88;24.77;;;;;;;;;;5114521;28;20254;-81
2020/12/21 11:15:30;;;;;;;26.10;24.40;;;;;;;;;;5115501;28;20185;-82
2020/12/21 11:17:57;;;;;;;26.10;24.15;;;;;;;;;;5114858;28;20198;-79
2020/12/21 11:20:23;;;;;;;25.45;23.83;;;;;;;;;;5115413;28;20190;-79
2020/12/21 11:22:51;;;;;;;25.15;23.25;;;;;;;;;;5116819;28;20640;-79
2020/12/21 11:25:18;;;;;;;23.63;21.98;;;;;;;;;;5116538;28;20212;-79
2020/12/21 11:27:45;;;;;;;24.90;23.10;;;;;;;;;;5117030;28;20188;-79
2020/12/21 11:30:13;;;;;;;25.75;24.15;;;;;;;;;;5119897;28;20204;-80
2020/12/21 11:32:40;;;;;;;25.85;24.20;;;;;;;;;;5103261;28;20218;-79
2020/12/21 11:35:07;;;;;;;25.70;23.95;;;;;;;;;;5120851;28;20190;-79
2020/12/21 11:37:34;;;;;;;25.40;23.65;;;;;;;;;;5121579;28;20664;-80
2020/12/21 11:40:01;;;;;;;25.23;23.20;;;;;;;;;;5119813;28;20208;-79
2020/12/21 11:42:28;;;;;;;23.42;21.92;;;;;;;;;;5119254;28;20194;-79
2020/12/21 11:44:55;;;;;;;24.90;23.15;;;;;;;;;;5099381;28;20663;-80
2020/12/21 11:47:23;;;;;;;25.13;23.23;;;;;;;;;;5098282;28;20189;-80
2020/12/21 11:49:50;;;;;;;27.27;24.73;;;;;;;;;;5116105;28;20215;-80
2020/12/21 11:52:17;;;;;;;24.23;22.27;;;;;;;;;;5116611;28;20188;-80
2020/12/21 11:54:44;;;;;;;24.10;22.50;;;;;;;;;;5117266;28;20182;-80
2020/12/21 11:57:11;;;;;;;25.00;23.20;;;;;;;;;;5116368;28;20211;-80
2020/12/21 11:59:38;;;;;;;25.58;23.35;;;;;;;;;;5116269;28;20213;-79
2020/12/21 12:02:04;;;;;;;24.15;22.45;;;;;;;;;;5118377;28;20639;-80
2020/12/21 12:04:33;;;;;;;23.00;21.60;;;;;;;;;;5115411;28;20188;-81
2020/12/21 12:07:01;;;;;;;24.30;22.58;;;;;;;;;;5116170;28;20217;-81
2020/12/21 12:09:29;;;;;;;23.60;21.83;;;;;;;;;;5099406;28;20252;-80
2020/12/21 12:11:56;;;;;;;23.60;22.20;;;;;;;;;;5116325;28;20194;-80
2020/12/21 12:14:23;;;;;;;23.33;21.85;;;;;;;;;;5114933;28;20222;-79
2020/12/21 12:16:52;;;;;;;22.95;21.45;;;;;;;;;;5117770;28;20222;-79
2020/12/21 12:19:22;;;;;;;22.65;21.30;;;;;;;;;;5116007;28;20196;-80
2020/12/21 12:21:52;;;;;;;22.02;20.73;;;;;;;;;;5116818;28;20250;-79
2020/12/21 12:24:19;;;;;;;23.77;22.38;;;;;;;;;;5115906;28;20591;-81
2020/12/21 12:26:46;;;;;;;23.70;22.10;;;;;;;;;;5115132;28;20186;-79
2020/12/21 12:29:13;;;;;;;23.98;22.55;;;;;;;;;;5113894;28;20312;-80
2020/12/21 12:31:40;;;;;;;23.90;22.17;;;;;;;;;;5113650;28;20527;-81
2020/12/21 12:34:07;;;;;;;22.92;21.13;;;;;;;;;;5113808;28;20581;-76
2020/12/21 12:36:34;;;;;;;23.45;22.05;;;;;;;;;;5114119;28;20192;-76
2020/12/21 12:39:02;;;;;;;23.45;21.83;;;;;;;;;;5115251;28;20259;-76
2020/12/21 12:41:29;;;;;;;22.63;21.23;;;;;;;;;;5114520;28;20189;-76
2020/12/21 12:43:56;;;;;;;22.50;20.98;;;;;;;;;;5113847;28;20182;-76
2020/12/21 12:46:23;;;;;;;22.23;20.63;;;;;;;;;;5114787;28;20189;-83
2020/12/21 12:48:50;;;;;;;23.30;21.85;;;;;;;;;;5115354;28;20220;-81
2020/12/21 12:51:17;;;;;;;23.65;22.00;;;;;;;;;;5113538;28;20530;-76
2020/12/21 12:53:44;;;;;;;22.70;21.25;;;;;;;;;;5113455;28;20279;-81
2020/12/21 12:56:12;;;;;;;22.95;21.65;;;;;;;;;;5114214;28;20195;-78
2020/12/21 12:58:39;;;;;;;22.67;20.95;;;;;;;;;;5114139;28;20194;-77
2020/12/21 13:01:06;;;;;;;22.83;21.23;;;;;;;;;;5095749;28;20198;-77
2020/12/21 13:03:33;;;;;;;23.42;21.75;;;;;;;;;;5113677;28;20322;-78
2020/12/21 13:05:59;;;;;;;23.20;21.27;;;;;;;;;;5113854;28;20200;-78
2020/12/21 13:08:26;;;;;;;22.95;21.45;;;;;;;;;;5113822;28;20224;-76
2020/12/21 13:10:53;;;;;;;21.85;20.52;;;;;;;;;;5113534;28;20183;-77
2020/12/21 13:13:21;;;;;;;23.55;21.95;;;;;;;;;;5113431;28;20240;-78
2020/12/21 13:15:48;;;;;;;22.92;21.30;;;;;;;;;;5113662;28;20248;-78
2020/12/21 13:18:15;;;;;;;23.90;22.45;;;;;;;;;;5113903;28;20657;-77
2020/12/21 13:20:41;;;;;;;23.52;22.05;;;;;;;;;;5113774;28;20186;-77
2020/12/21 13:23:08;;;;;;;25.25;23.23;;;;;;;;;;5113553;28;20201;-77
2020/12/21 13:25:35;;;;;;;24.92;22.90;;;;;;;;;;5113802;28;20190;-79
2020/12/21 13:28:02;;;;;;;23.35;21.77;;;;;;;;;;5117363;28;20666;-78
2020/12/21 13:30:30;;;;;;;24.45;22.58;;;;;;;;;;5116938;28;20221;-78
2020/12/21 13:32:57;;;;;;;24.42;22.58;;;;;;;;;;5117001;28;20217;-79
2020/12/21 13:35:24;;;;;;;24.67;22.60;;;;;;;;;;5116541;28;20195;-78
2020/12/21 13:37:50;;;;;;;23.35;21.75;;;;;;;;;;5117209;28;20186;-80
2020/12/21 13:40:18;;;;;;;26.65;24.25;;;;;;;;;;5117167;28;20203;-80
2020/12/21 13:42:46;;;;;;;25.07;23.23;;;;;;;;;;5117056;28;20611;-82
2020/12/21 13:45:12;;;;;;;24.60;23.00;;;;;;;;;;5117068;28;20416;-77
2020/12/21 13:47:41;;;;;;;25.45;23.80;;;;;;;;;;5116947;28;20194;-80
2020/12/21 13:50:08;;;;;;;25.05;23.38;;;;;;;;;;5116009;28;20222;-80
2020/12/21 13:52:35;;;;;;;24.45;22.75;;;;;;;;;;5116447;28;20190;-83
2020/12/21 13:55:03;;;;;;;25.33;23.30;;;;;;;;;;5117166;28;20190;-79
2020/12/21 13:57:30;;;;;;;25.90;24.13;;;;;;;;;;5116912;28;20204;-79
2020/12/21 13:59:57;;;;;;;23.45;21.90;;;;;;;;;;5116203;28;20241;-77
2020/12/21 14:02:24;;;;;;;25.08;23.02;;;;;;;;;;5117456;28;20620;-75
2020/12/21 14:04:51;;;;;;;24.30;22.33;;;;;;;;;;5116759;28;20190;-80
2020/12/21 14:07:18;;;;;;;24.85;23.23;;;;;;;;;;5116591;28;20202;-80
2020/12/21 14:09:46;;;;;;;23.88;21.92;;;;;;;;;;5116628;28;20218;-79
2020/12/21 14:12:13;;;;;;;23.58;21.63;;;;;;;;;;5116381;28;20244;-79
2020/12/21 14:14:39;;;;;;;23.17;21.52;;;;;;;;;;5116007;28;20222;-79
2020/12/21 14:17:06;;;;;;;24.80;22.90;;;;;;;;;;5116109;28;20204;-80
2020/12/21 14:19:33;;;;;;;25.17;23.00;;;;;;;;;;5116260;28;20190;-80
2020/12/21 14:22:01;;;;;;;24.63;23.13;;;;;;;;;;5116260;28;20623;-80